sensor_id;sensor_type;location;lat;lon;timestamp;temperature;humidity
20081;DHT22;10200;49.232;9.222;2023-01-16T00:00:03;5.70;99.90
20081;DHT22;10200;49.232;9.222;2023-01-16T00:02:29;5.70;99.90
20081;DHT22;10200;49.232;9.222;2023-01-16T00:04:54;5.70;99.90
20081;DHT22;10200;49.232;9.222;2023-01-16T00:07:20;5.70;99.90
20081;DHT22;10200;49.232;9.222;2023-01-16T00:09:46;5.70;99.90
20081;DHT22;10200;49.232;9.222;2023-01-16T00:12:11;5.70;99.90
20081;DHT22;10200;49.232;9.222;2023-01-16T00:14:37;5.80;99.90
20081;DHT22;10200;49.232;9.222;2023-01-16T00:17:02;5.70;99.90
20081;DHT22;10200;49.232;9.222;2023-01-16T00:19:28;5.70;99.90
20081;DHT22;10200;49.232;9.222;2023-01-16T00:21:53;5.70;99.90
20081;DHT22;10200;49.232;9.222;2023-01-16T00:24:19;5.70;99.90
20081;DHT22;10200;49.232;9.222;2023-01-16T00:26:44;5.70;99.90
20081;DHT22;10200;49.232;9.222;2023-01-16T00:29:10;5.70;99.90
20081;DHT22;10200;49.232;9.222;2023-01-16T00:31:36;5.60;99.90
20081;DHT22;10200;49.232;9.222;2023-01-16T00:34:01;5.60;99.90
20081;DHT22;10200;49.232;9.222;2023-01-16T00:36:27;5.70;99.90
20081;DHT22;10200;49.232;9.222;2023-01-16T00:38:52;5.70;99.90
20081;DHT22;10200;49.232;9.222;2023-01-16T00:41:20;5.70;99.90
20081;DHT22;10200;49.232;9.222;2023-01-16T00:43:46;5.70;99.90
20081;DHT22;10200;49.232;9.222;2023-01-16T00:46:11;5.70;99.90
20081;DHT22;10200;49.232;9.222;2023-01-16T00:48:37;5.70;99.90
20081;DHT22;10200;49.232;9.222;2023-01-16T00:51:03;5.70;99.90
20081;DHT22;10200;49.232;9.222;2023-01-16T00:53:28;5.60;99.90
20081;DHT22;10200;49.232;9.222;2023-01-16T00:55:54;5.70;99.90
20081;DHT22;10200;49.232;9.222;2023-01-16T00:58:20;5.60;99.90
20081;DHT22;10200;49.232;9.222;2023-01-16T01:00:45;5.60;99.90
20081;DHT22;10200;49.232;9.222;2023-01-16T01:03:11;5.60;99.90
20081;DHT22;10200;49.232;9.222;2023-01-16T01:05:38;5.70;99.90
20081;DHT22;10200;49.232;9.222;2023-01-16T01:08:04;5.70;99.90
20081;DHT22;10200;49.232;9.222;2023-01-16T01:10:30;5.70;99.90
20081;DHT22;10200;49.232;9.222;2023-01-16T01:12:55;5.70;99.90
20081;DHT22;10200;49.232;9.222;2023-01-16T01:15:22;5.70;99.80
20081;DHT22;10200;49.232;9.222;2023-01-16T01:17:48;5.70;99.70
20081;DHT22;10200;49.232;9.222;2023-01-16T01:20:14;5.70;99.70
20081;DHT22;10200;49.232;9.222;2023-01-16T01:22:39;5.80;99.90
20081;DHT22;10200;49.232;9.222;2023-01-16T01:25:05;5.80;99.80
20081;DHT22;10200;49.232;9.222;2023-01-16T01:27:31;5.80;99.70
20081;DHT22;10200;49.232;9.222;2023-01-16T01:29:56;5.80;99.40
20081;DHT22;10200;49.232;9.222;2023-01-16T01:32:22;5.80;99.70
20081;DHT22;10200;49.232;9.222;2023-01-16T01:34:47;5.80;99.00
20081;DHT22;10200;49.232;9.222;2023-01-16T01:37:13;5.80;99.10
20081;DHT22;10200;49.232;9.222;2023-01-16T01:39:39;5.80;99.20
20081;DHT22;10200;49.232;9.222;2023-01-16T01:42:04;5.80;99.00
20081;DHT22;10200;49.232;9.222;2023-01-16T01:44:50;5.80;99.00
20081;DHT22;10200;49.232;9.222;2023-01-16T01:47:17;5.80;98.70
20081;DHT22;10200;49.232;9.222;2023-01-16T01:49:43;5.80;98.90
20081;DHT22;10200;49.232;9.222;2023-01-16T01:52:10;5.80;98.80
20081;DHT22;10200;49.232;9.222;2023-01-16T01:54:39;5.70;98.60
20081;DHT22;10200;49.232;9.222;2023-01-16T01:57:19;5.70;98.20
20081;DHT22;10200;49.232;9.222;2023-01-16T02:00:03;5.70;98.50
20081;DHT22;10200;49.232;9.222;2023-01-16T02:02:33;5.70;98.30
20081;DHT22;10200;49.232;9.222;2023-01-16T02:05:03;5.70;98.20
20081;DHT22;10200;49.232;9.222;2023-01-16T02:07:29;5.70;98.40
20081;DHT22;10200;49.232;9.222;2023-01-16T02:10:02;5.70;98.30
20081;DHT22;10200;49.232;9.222;2023-01-16T02:12:31;5.70;98.10
20081;DHT22;10200;49.232;9.222;2023-01-16T02:14:57;5.70;98.30
20081;DHT22;10200;49.232;9.222;2023-01-16T02:17:24;5.70;98.10
20081;DHT22;10200;49.232;9.222;2023-01-16T02:36:59;5.70;97.40
20081;DHT22;10200;49.232;9.222;2023-01-16T02:45:10;5.60;97.00
20081;DHT22;10200;49.232;9.222;2023-01-16T02:47:55;5.60;97.20
20081;DHT22;10200;49.232;9.222;2023-01-16T02:50:31;5.60;97.30
20081;DHT22;10200;49.232;9.222;2023-01-16T02:56:06;5.60;97.10
20081;DHT22;10200;49.232;9.222;2023-01-16T02:58:39;5.50;97.00
20081;DHT22;10200;49.232;9.222;2023-01-16T03:01:07;5.50;96.90
20081;DHT22;10200;49.232;9.222;2023-01-16T03:11:37;5.50;97.30
20081;DHT22;10200;49.232;9.222;2023-01-16T03:14:19;5.50;97.00
20081;DHT22;10200;49.232;9.222;2023-01-16T03:17:01;5.50;97.20
20081;DHT22;10200;49.232;9.222;2023-01-16T03:19:51;5.60;97.00
20081;DHT22;10200;49.232;9.222;2023-01-16T03:25:55;5.60;97.10
20081;DHT22;10200;49.232;9.222;2023-01-16T03:36:35;5.60;96.90
20081;DHT22;10200;49.232;9.222;2023-01-16T03:39:04;5.60;96.70
20081;DHT22;10200;49.232;9.222;2023-01-16T03:41:33;5.60;96.90
20081;DHT22;10200;49.232;9.222;2023-01-16T03:44:05;5.60;96.70
20081;DHT22;10200;49.232;9.222;2023-01-16T03:46:40;5.60;96.70
20081;DHT22;10200;49.232;9.222;2023-01-16T03:49:12;5.60;96.70
20081;DHT22;10200;49.232;9.222;2023-01-16T03:51:46;5.70;96.50
20081;DHT22;10200;49.232;9.222;2023-01-16T03:56:55;5.70;96.50
20081;DHT22;10200;49.232;9.222;2023-01-16T03:59:22;5.70;96.40
20081;DHT22;10200;49.232;9.222;2023-01-16T04:01:54;5.70;96.40
20081;DHT22;10200;49.232;9.222;2023-01-16T04:04:32;5.70;96.40
20081;DHT22;10200;49.232;9.222;2023-01-16T04:07:31;5.70;96.40
20081;DHT22;10200;49.232;9.222;2023-01-16T04:09:57;5.70;96.50
20081;DHT22;10200;49.232;9.222;2023-01-16T04:12:27;5.70;96.30
20081;DHT22;10200;49.232;9.222;2023-01-16T04:14:58;5.70;96.50
20081;DHT22;10200;49.232;9.222;2023-01-16T04:17:25;5.70;96.40
20081;DHT22;10200;49.232;9.222;2023-01-16T04:19:51;5.70;96.40
20081;DHT22;10200;49.232;9.222;2023-01-16T04:22:27;5.70;96.60
20081;DHT22;10200;49.232;9.222;2023-01-16T04:24:56;5.70;96.60
20081;DHT22;10200;49.232;9.222;2023-01-16T04:27:23;5.70;96.40
20081;DHT22;10200;49.232;9.222;2023-01-16T04:29:48;5.70;96.40
20081;DHT22;10200;49.232;9.222;2023-01-16T04:32:14;5.70;96.50
20081;DHT22;10200;49.232;9.222;2023-01-16T04:34:40;5.80;96.70
20081;DHT22;10200;49.232;9.222;2023-01-16T04:37:06;5.80;96.50
20081;DHT22;10200;49.232;9.222;2023-01-16T04:39:32;5.80;96.40
20081;DHT22;10200;49.232;9.222;2023-01-16T04:41:57;5.70;96.00
20081;DHT22;10200;49.232;9.222;2023-01-16T04:44:23;5.80;96.20
20081;DHT22;10200;49.232;9.222;2023-01-16T04:46:49;5.80;96.10
20081;DHT22;10200;49.232;9.222;2023-01-16T04:49:15;5.80;96.00
20081;DHT22;10200;49.232;9.222;2023-01-16T04:51:41;5.80;96.00
20081;DHT22;10200;49.232;9.222;2023-01-16T04:54:09;5.80;95.70
20081;DHT22;10200;49.232;9.222;2023-01-16T04:56:38;5.80;95.40
20081;DHT22;10200;49.232;9.222;2023-01-16T04:59:04;5.80;95.30
20081;DHT22;10200;49.232;9.222;2023-01-16T05:01:29;5.70;95.30
20081;DHT22;10200;49.232;9.222;2023-01-16T05:04:00;5.80;95.50
20081;DHT22;10200;49.232;9.222;2023-01-16T05:06:26;5.70;95.40
20081;DHT22;10200;49.232;9.222;2023-01-16T05:08:52;5.80;95.40
20081;DHT22;10200;49.232;9.222;2023-01-16T05:11:17;5.70;95.30
20081;DHT22;10200;49.232;9.222;2023-01-16T05:13:43;5.70;95.20
20081;DHT22;10200;49.232;9.222;2023-01-16T05:16:09;5.70;95.40
20081;DHT22;10200;49.232;9.222;2023-01-16T05:18:34;5.70;95.30
20081;DHT22;10200;49.232;9.222;2023-01-16T05:21:00;5.70;95.30
20081;DHT22;10200;49.232;9.222;2023-01-16T05:23:26;5.60;95.20
20081;DHT22;10200;49.232;9.222;2023-01-16T05:25:51;5.70;95.50
20081;DHT22;10200;49.232;9.222;2023-01-16T05:28:19;5.70;95.60
20081;DHT22;10200;49.232;9.222;2023-01-16T05:30:47;5.60;95.40
20081;DHT22;10200;49.232;9.222;2023-01-16T05:33:13;5.60;95.50
20081;DHT22;10200;49.232;9.222;2023-01-16T05:35:38;5.60;95.20
20081;DHT22;10200;49.232;9.222;2023-01-16T05:38:04;5.50;95.10
20081;DHT22;10200;49.232;9.222;2023-01-16T05:40:30;5.60;94.90
20081;DHT22;10200;49.232;9.222;2023-01-16T05:42:55;5.50;95.00
20081;DHT22;10200;49.232;9.222;2023-01-16T05:45:21;5.40;95.00
20081;DHT22;10200;49.232;9.222;2023-01-16T05:47:46;5.40;94.90
20081;DHT22;10200;49.232;9.222;2023-01-16T05:50:14;6.20;99.90
20081;DHT22;10200;49.232;9.222;2023-01-16T05:52:40;5.50;99.80
20081;DHT22;10200;49.232;9.222;2023-01-16T05:55:06;5.30;94.60
20081;DHT22;10200;49.232;9.222;2023-01-16T05:57:31;5.30;94.80
20081;DHT22;10200;49.232;9.222;2023-01-16T05:59:58;5.30;94.70
20081;DHT22;10200;49.232;9.222;2023-01-16T06:02:24;5.30;94.80
20081;DHT22;10200;49.232;9.222;2023-01-16T06:04:49;5.30;94.90
20081;DHT22;10200;49.232;9.222;2023-01-16T06:07:15;5.30;94.90
20081;DHT22;10200;49.232;9.222;2023-01-16T06:09:41;5.20;94.70
20081;DHT22;10200;49.232;9.222;2023-01-16T06:12:07;5.10;94.60
20081;DHT22;10200;49.232;9.222;2023-01-16T06:14:35;5.20;94.60
20081;DHT22;10200;49.232;9.222;2023-01-16T06:17:01;5.20;94.60
20081;DHT22;10200;49.232;9.222;2023-01-16T06:19:26;5.20;94.50
20081;DHT22;10200;49.232;9.222;2023-01-16T06:21:53;5.20;94.70
20081;DHT22;10200;49.232;9.222;2023-01-16T06:24:19;5.20;94.60
20081;DHT22;10200;49.232;9.222;2023-01-16T06:26:44;5.20;94.20
20081;DHT22;10200;49.232;9.222;2023-01-16T06:29:10;5.20;94.40
20081;DHT22;10200;49.232;9.222;2023-01-16T06:31:36;5.20;94.40
20081;DHT22;10200;49.232;9.222;2023-01-16T06:34:02;5.20;94.70
20081;DHT22;10200;49.232;9.222;2023-01-16T06:36:27;5.20;94.50
20081;DHT22;10200;49.232;9.222;2023-01-16T06:38:53;5.20;94.60
20081;DHT22;10200;49.232;9.222;2023-01-16T06:41:18;5.20;94.30
20081;DHT22;10200;49.232;9.222;2023-01-16T06:43:44;5.20;94.20
20081;DHT22;10200;49.232;9.222;2023-01-16T06:46:10;5.20;94.00
20081;DHT22;10200;49.232;9.222;2023-01-16T06:48:35;5.20;94.00
20081;DHT22;10200;49.232;9.222;2023-01-16T06:51:01;5.20;93.90
20081;DHT22;10200;49.232;9.222;2023-01-16T06:53:27;5.20;94.00
20081;DHT22;10200;49.232;9.222;2023-01-16T06:55:52;5.20;94.00
20081;DHT22;10200;49.232;9.222;2023-01-16T06:58:18;5.20;94.00
20081;DHT22;10200;49.232;9.222;2023-01-16T07:00:44;5.30;94.10
20081;DHT22;10200;49.232;9.222;2023-01-16T07:03:10;5.30;93.80
20081;DHT22;10200;49.232;9.222;2023-01-16T07:05:36;5.30;93.90
20081;DHT22;10200;49.232;9.222;2023-01-16T07:08:02;5.30;93.80
20081;DHT22;10200;49.232;9.222;2023-01-16T07:10:28;5.40;93.70
20081;DHT22;10200;49.232;9.222;2023-01-16T07:12:53;5.40;93.80
20081;DHT22;10200;49.232;9.222;2023-01-16T07:15:20;5.40;93.40
20081;DHT22;10200;49.232;9.222;2023-01-16T07:18:05;5.40;93.40
20081;DHT22;10200;49.232;9.222;2023-01-16T07:20:58;5.40;93.90
20081;DHT22;10200;49.232;9.222;2023-01-16T07:23:56;5.30;93.70
20081;DHT22;10200;49.232;9.222;2023-01-16T07:26:23;5.30;93.80
20081;DHT22;10200;49.232;9.222;2023-01-16T07:28:50;5.20;93.90
20081;DHT22;10200;49.232;9.222;2023-01-16T07:31:16;5.20;94.30
20081;DHT22;10200;49.232;9.222;2023-01-16T07:33:42;5.20;94.40
20081;DHT22;10200;49.232;9.222;2023-01-16T07:36:08;5.10;94.70
20081;DHT22;10200;49.232;9.222;2023-01-16T07:38:33;5.10;95.10
20081;DHT22;10200;49.232;9.222;2023-01-16T07:40:59;5.10;95.30
20081;DHT22;10200;49.232;9.222;2023-01-16T07:43:25;5.10;95.50
20081;DHT22;10200;49.232;9.222;2023-01-16T07:45:50;5.10;95.60
20081;DHT22;10200;49.232;9.222;2023-01-16T07:48:22;5.00;95.80
20081;DHT22;10200;49.232;9.222;2023-01-16T07:50:56;5.00;96.00
20081;DHT22;10200;49.232;9.222;2023-01-16T07:53:25;5.10;96.10
20081;DHT22;10200;49.232;9.222;2023-01-16T07:55:57;5.10;96.10
20081;DHT22;10200;49.232;9.222;2023-01-16T07:58:23;5.20;95.80
20081;DHT22;10200;49.232;9.222;2023-01-16T08:00:52;5.30;95.50
20081;DHT22;10200;49.232;9.222;2023-01-16T08:03:17;5.40;95.40
20081;DHT22;10200;49.232;9.222;2023-01-16T08:05:43;5.50;95.10
20081;DHT22;10200;49.232;9.222;2023-01-16T08:08:10;5.60;95.00
20081;DHT22;10200;49.232;9.222;2023-01-16T08:10:36;5.60;94.50
20081;DHT22;10200;49.232;9.222;2023-01-16T08:13:02;5.70;94.00
20081;DHT22;10200;49.232;9.222;2023-01-16T08:15:27;5.70;93.80
20081;DHT22;10200;49.232;9.222;2023-01-16T08:17:53;5.80;93.10
20081;DHT22;10200;49.232;9.222;2023-01-16T08:20:19;5.80;92.70
20081;DHT22;10200;49.232;9.222;2023-01-16T08:22:46;5.80;92.40
20081;DHT22;10200;49.232;9.222;2023-01-16T08:25:13;5.90;92.20
20081;DHT22;10200;49.232;9.222;2023-01-16T08:27:38;5.90;92.10
20081;DHT22;10200;49.232;9.222;2023-01-16T08:30:05;5.90;91.70
20081;DHT22;10200;49.232;9.222;2023-01-16T08:32:31;5.90;91.40
20081;DHT22;10200;49.232;9.222;2023-01-16T08:34:56;6.00;91.50
20081;DHT22;10200;49.232;9.222;2023-01-16T08:37:22;6.00;91.30
20081;DHT22;10200;49.232;9.222;2023-01-16T08:39:47;6.10;91.20
20081;DHT22;10200;49.232;9.222;2023-01-16T08:42:13;6.10;91.00
20081;DHT22;10200;49.232;9.222;2023-01-16T08:44:57;6.10;90.80
20081;DHT22;10200;49.232;9.222;2023-01-16T08:47:41;6.20;90.90
20081;DHT22;10200;49.232;9.222;2023-01-16T08:50:26;6.30;90.10
20081;DHT22;10200;49.232;9.222;2023-01-16T08:53:10;6.40;90.20
20081;DHT22;10200;49.232;9.222;2023-01-16T08:55:35;6.50;89.70
20081;DHT22;10200;49.232;9.222;2023-01-16T08:58:01;6.60;89.20
20081;DHT22;10200;49.232;9.222;2023-01-16T09:00:28;6.70;88.90
20081;DHT22;10200;49.232;9.222;2023-01-16T09:02:54;6.80;88.30
20081;DHT22;10200;49.232;9.222;2023-01-16T09:05:22;6.90;88.00
20081;DHT22;10200;49.232;9.222;2023-01-16T09:07:48;6.90;87.50
20081;DHT22;10200;49.232;9.222;2023-01-16T09:10:13;6.90;86.40
20081;DHT22;10200;49.232;9.222;2023-01-16T09:12:39;6.90;85.90
20081;DHT22;10200;49.232;9.222;2023-01-16T09:15:24;6.90;85.70
20081;DHT22;10200;49.232;9.222;2023-01-16T09:17:51;6.90;85.50
20081;DHT22;10200;49.232;9.222;2023-01-16T09:20:17;6.90;84.80
20081;DHT22;10200;49.232;9.222;2023-01-16T09:22:42;6.80;85.10
20081;DHT22;10200;49.232;9.222;2023-01-16T09:25:08;6.80;85.00
20081;DHT22;10200;49.232;9.222;2023-01-16T09:27:34;6.80;85.20
20081;DHT22;10200;49.232;9.222;2023-01-16T09:30:00;6.80;85.60
20081;DHT22;10200;49.232;9.222;2023-01-16T09:32:26;6.80;85.40
20081;DHT22;10200;49.232;9.222;2023-01-16T09:34:52;6.70;85.10
20081;DHT22;10200;49.232;9.222;2023-01-16T09:37:17;6.70;85.00
20081;DHT22;10200;49.232;9.222;2023-01-16T09:39:44;6.70;84.90
20081;DHT22;10200;49.232;9.222;2023-01-16T09:45:32;6.60;85.10
20081;DHT22;10200;49.232;9.222;2023-01-16T09:48:12;6.60;88.00
20081;DHT22;10200;49.232;9.222;2023-01-16T09:50:51;6.50;87.00
20081;DHT22;10200;49.232;9.222;2023-01-16T09:56:40;6.40;90.50
20081;DHT22;10200;49.232;9.222;2023-01-16T09:59:41;6.40;91.00
20081;DHT22;10200;49.232;9.222;2023-01-16T10:02:24;6.30;91.50
20081;DHT22;10200;49.232;9.222;2023-01-16T10:04:52;6.20;92.30
20081;DHT22;10200;49.232;9.222;2023-01-16T10:10:51;6.10;93.40
20081;DHT22;10200;49.232;9.222;2023-01-16T10:16:12;6.00;93.90
20081;DHT22;10200;49.232;9.222;2023-01-16T10:18:58;6.00;94.00
20081;DHT22;10200;49.232;9.222;2023-01-16T10:30:13;6.10;94.20
20081;DHT22;10200;49.232;9.222;2023-01-16T10:32:42;6.10;93.50
20081;DHT22;10200;49.232;9.222;2023-01-16T10:37:38;6.30;93.20
20081;DHT22;10200;49.232;9.222;2023-01-16T10:40:22;6.30;93.20
20081;DHT22;10200;49.232;9.222;2023-01-16T10:42:58;6.30;92.90
20081;DHT22;10200;49.232;9.222;2023-01-16T10:45:44;6.40;92.20
20081;DHT22;10200;49.232;9.222;2023-01-16T10:48:29;6.40;92.00
20081;DHT22;10200;49.232;9.222;2023-01-16T10:51:14;6.40;92.00
20081;DHT22;10200;49.232;9.222;2023-01-16T10:53:40;6.50;91.30
20081;DHT22;10200;49.232;9.222;2023-01-16T10:56:06;6.50;90.50
20081;DHT22;10200;49.232;9.222;2023-01-16T10:58:37;6.50;90.50
20081;DHT22;10200;49.232;9.222;2023-01-16T11:01:11;6.60;89.60
20081;DHT22;10200;49.232;9.222;2023-01-16T11:03:50;6.60;88.10
20081;DHT22;10200;49.232;9.222;2023-01-16T11:06:21;6.70;88.00
20081;DHT22;10200;49.232;9.222;2023-01-16T11:08:49;6.70;87.00
20081;DHT22;10200;49.232;9.222;2023-01-16T11:11:17;6.70;86.50
20081;DHT22;10200;49.232;9.222;2023-01-16T11:14:10;6.80;86.60
20081;DHT22;10200;49.232;9.222;2023-01-16T11:16:56;6.90;85.50
20081;DHT22;10200;49.232;9.222;2023-01-16T11:20:02;6.90;84.80
20081;DHT22;10200;49.232;9.222;2023-01-16T11:22:28;6.90;84.90
20081;DHT22;10200;49.232;9.222;2023-01-16T11:24:58;7.00;84.80
20081;DHT22;10200;49.232;9.222;2023-01-16T11:27:27;7.00;82.50
20081;DHT22;10200;49.232;9.222;2023-01-16T11:29:55;7.00;81.90
20081;DHT22;10200;49.232;9.222;2023-01-16T11:32:23;7.10;80.40
20081;DHT22;10200;49.232;9.222;2023-01-16T11:34:53;7.10;79.80
20081;DHT22;10200;49.232;9.222;2023-01-16T11:37:20;7.20;80.60
20081;DHT22;10200;49.232;9.222;2023-01-16T11:39:49;7.20;80.90
20081;DHT22;10200;49.232;9.222;2023-01-16T11:42:16;7.20;81.10
20081;DHT22;10200;49.232;9.222;2023-01-16T11:45:12;7.20;80.60
20081;DHT22;10200;49.232;9.222;2023-01-16T11:48:00;7.30;80.90
20081;DHT22;10200;49.232;9.222;2023-01-16T11:50:35;7.30;81.70
20081;DHT22;10200;49.232;9.222;2023-01-16T11:53:01;7.40;82.20
20081;DHT22;10200;49.232;9.222;2023-01-16T11:55:39;7.40;82.50
20081;DHT22;10200;49.232;9.222;2023-01-16T11:58:27;7.40;82.70
20081;DHT22;10200;49.232;9.222;2023-01-16T12:01:06;7.40;83.20
20081;DHT22;10200;49.232;9.222;2023-01-16T12:04:19;7.40;83.50
20081;DHT22;10200;49.232;9.222;2023-01-16T12:07:22;7.40;83.80
20081;DHT22;10200;49.232;9.222;2023-01-16T12:10:04;7.40;83.80
20081;DHT22;10200;49.232;9.222;2023-01-16T12:12:38;7.40;84.40
20081;DHT22;10200;49.232;9.222;2023-01-16T12:15:35;7.40;84.50
20081;DHT22;10200;49.232;9.222;2023-01-16T12:20:53;7.40;85.20
20081;DHT22;10200;49.232;9.222;2023-01-16T12:23:25;7.50;85.80
20081;DHT22;10200;49.232;9.222;2023-01-16T12:26:26;7.50;86.00
20081;DHT22;10200;49.232;9.222;2023-01-16T12:34:38;7.60;86.30
20081;DHT22;10200;49.232;9.222;2023-01-16T12:37:20;7.60;86.80
20081;DHT22;10200;49.232;9.222;2023-01-16T12:46:00;7.60;85.80
20081;DHT22;10200;49.232;9.222;2023-01-16T12:59:46;7.60;85.80
20081;DHT22;10200;49.232;9.222;2023-01-16T13:02:28;7.60;85.60
20081;DHT22;10200;49.232;9.222;2023-01-16T13:05:02;7.70;86.00
20081;DHT22;10200;49.232;9.222;2023-01-16T13:07:33;7.70;86.30
20081;DHT22;10200;49.232;9.222;2023-01-16T13:10:13;7.70;86.30
20081;DHT22;10200;49.232;9.222;2023-01-16T13:13:02;7.80;86.40
20081;DHT22;10200;49.232;9.222;2023-01-16T13:16:27;7.80;86.40
20081;DHT22;10200;49.232;9.222;2023-01-16T13:19:14;7.90;86.60
20081;DHT22;10200;49.232;9.222;2023-01-16T13:22:14;7.90;86.80
20081;DHT22;10200;49.232;9.222;2023-01-16T13:24:50;7.90;86.50
20081;DHT22;10200;49.232;9.222;2023-01-16T13:27:27;8.00;86.60
20081;DHT22;10200;49.232;9.222;2023-01-16T13:30:03;8.00;86.70
20081;DHT22;10200;49.232;9.222;2023-01-16T13:33:17;8.00;87.00
20081;DHT22;10200;49.232;9.222;2023-01-16T13:35:42;8.10;87.10
20081;DHT22;10200;49.232;9.222;2023-01-16T13:41:34;8.10;87.00
20081;DHT22;10200;49.232;9.222;2023-01-16T13:44:21;8.10;86.80
20081;DHT22;10200;49.232;9.222;2023-01-16T13:47:12;8.00;86.80
20081;DHT22;10200;49.232;9.222;2023-01-16T13:49:39;8.00;87.20
20081;DHT22;10200;49.232;9.222;2023-01-16T13:52:29;8.10;87.50
20081;DHT22;10200;49.232;9.222;2023-01-16T13:55:00;8.10;87.20
20081;DHT22;10200;49.232;9.222;2023-01-16T13:57:27;8.00;87.60
20081;DHT22;10200;49.232;9.222;2023-01-16T13:59:55;8.00;87.70
20081;DHT22;10200;49.232;9.222;2023-01-16T14:10:40;8.10;87.90
20081;DHT22;10200;49.232;9.222;2023-01-16T14:24:06;8.10;88.40
20081;DHT22;10200;49.232;9.222;2023-01-16T14:26:51;8.10;88.40
20081;DHT22;10200;49.232;9.222;2023-01-16T14:29:30;8.10;88.70
20081;DHT22;10200;49.232;9.222;2023-01-16T14:32:01;8.10;88.50
20081;DHT22;10200;49.232;9.222;2023-01-16T14:34:33;8.10;88.60
20081;DHT22;10200;49.232;9.222;2023-01-16T14:37:05;8.20;88.70
20081;DHT22;10200;49.232;9.222;2023-01-16T14:39:38;8.30;88.80
20081;DHT22;10200;49.232;9.222;2023-01-16T14:42:36;8.40;88.50
20081;DHT22;10200;49.232;9.222;2023-01-16T14:48:29;8.70;87.10
20081;DHT22;10200;49.232;9.222;2023-01-16T14:51:18;8.80;86.30
20081;DHT22;10200;49.232;9.222;2023-01-16T14:54:19;8.70;85.90
20081;DHT22;10200;49.232;9.222;2023-01-16T14:57:16;8.70;85.60
20081;DHT22;10200;49.232;9.222;2023-01-16T15:00:10;8.70;86.00
20081;DHT22;10200;49.232;9.222;2023-01-16T15:03:04;8.60;85.90
20081;DHT22;10200;49.232;9.222;2023-01-16T15:08:26;8.50;86.00
20081;DHT22;10200;49.232;9.222;2023-01-16T15:10:54;8.50;86.00
20081;DHT22;10200;49.232;9.222;2023-01-16T15:13:29;8.40;85.60
20081;DHT22;10200;49.232;9.222;2023-01-16T15:16:20;8.40;85.60
20081;DHT22;10200;49.232;9.222;2023-01-16T15:19:17;8.30;85.80
20081;DHT22;10200;49.232;9.222;2023-01-16T15:22:02;8.40;86.30
20081;DHT22;10200;49.232;9.222;2023-01-16T15:24:31;8.30;86.60
20081;DHT22;10200;49.232;9.222;2023-01-16T15:27:04;8.30;86.10
20081;DHT22;10200;49.232;9.222;2023-01-16T15:29:54;8.30;86.30
20081;DHT22;10200;49.232;9.222;2023-01-16T15:32:22;8.30;86.30
20081;DHT22;10200;49.232;9.222;2023-01-16T15:35:13;8.20;86.40
20081;DHT22;10200;49.232;9.222;2023-01-16T15:37:50;8.20;86.60
20081;DHT22;10200;49.232;9.222;2023-01-16T15:40:26;8.10;86.90
20081;DHT22;10200;49.232;9.222;2023-01-16T15:42:53;8.10;87.00
20081;DHT22;10200;49.232;9.222;2023-01-16T15:45:52;8.10;87.00
20081;DHT22;10200;49.232;9.222;2023-01-16T15:48:45;8.10;87.10
20081;DHT22;10200;49.232;9.222;2023-01-16T15:51:20;8.00;87.60
20081;DHT22;10200;49.232;9.222;2023-01-16T15:53:48;8.00;87.20
20081;DHT22;10200;49.232;9.222;2023-01-16T15:56:22;8.00;87.70
20081;DHT22;10200;49.232;9.222;2023-01-16T15:58:50;8.00;87.70
20081;DHT22;10200;49.232;9.222;2023-01-16T16:01:28;8.00;87.50
20081;DHT22;10200;49.232;9.222;2023-01-16T16:03:54;8.00;87.80
20081;DHT22;10200;49.232;9.222;2023-01-16T16:06:21;8.00;88.10
20081;DHT22;10200;49.232;9.222;2023-01-16T16:08:50;7.90;88.80
20081;DHT22;10200;49.232;9.222;2023-01-16T16:11:22;7.90;89.90
20081;DHT22;10200;49.232;9.222;2023-01-16T16:14:20;7.90;90.20
20081;DHT22;10200;49.232;9.222;2023-01-16T16:23:01;7.80;91.80
20081;DHT22;10200;49.232;9.222;2023-01-16T16:28:35;7.60;93.30
20081;DHT22;10200;49.232;9.222;2023-01-16T16:31:15;7.60;93.90
20081;DHT22;10200;49.232;9.222;2023-01-16T16:33:43;7.50;95.00
20081;DHT22;10200;49.232;9.222;2023-01-16T16:36:17;7.50;96.00
20081;DHT22;10200;49.232;9.222;2023-01-16T16:38:47;7.40;96.90
20081;DHT22;10200;49.232;9.222;2023-01-16T16:43:50;7.30;98.90
20081;DHT22;10200;49.232;9.222;2023-01-16T16:51:36;7.10;99.90
20081;DHT22;10200;49.232;9.222;2023-01-16T16:54:06;7.10;99.90
20081;DHT22;10200;49.232;9.222;2023-01-16T16:56:36;7.00;99.90
20081;DHT22;10200;49.232;9.222;2023-01-16T16:59:02;7.00;99.90
20081;DHT22;10200;49.232;9.222;2023-01-16T17:01:28;6.90;99.90
20081;DHT22;10200;49.232;9.222;2023-01-16T17:04:00;6.90;99.90
20081;DHT22;10200;49.232;9.222;2023-01-16T17:06:29;6.80;99.90
20081;DHT22;10200;49.232;9.222;2023-01-16T17:08:55;6.80;99.90
20081;DHT22;10200;49.232;9.222;2023-01-16T17:11:21;6.80;99.90
20081;DHT22;10200;49.232;9.222;2023-01-16T17:13:47;6.70;99.90
20081;DHT22;10200;49.232;9.222;2023-01-16T17:16:23;6.70;99.90
20081;DHT22;10200;49.232;9.222;2023-01-16T17:19:36;6.70;99.90
20081;DHT22;10200;49.232;9.222;2023-01-16T17:21:43;6.70;99.90
20081;DHT22;10200;49.232;9.222;2023-01-16T17:24:18;6.70;99.90
20081;DHT22;10200;49.232;9.222;2023-01-16T17:26:44;6.70;99.90
20081;DHT22;10200;49.232;9.222;2023-01-16T17:29:10;6.70;99.90
20081;DHT22;10200;49.232;9.222;2023-01-16T17:31:38;6.70;99.90
20081;DHT22;10200;49.232;9.222;2023-01-16T17:34:04;6.70;99.90
20081;DHT22;10200;49.232;9.222;2023-01-16T17:36:30;6.70;99.90
20081;DHT22;10200;49.232;9.222;2023-01-16T17:38:57;6.70;99.90
20081;DHT22;10200;49.232;9.222;2023-01-16T17:41:25;6.70;99.90
20081;DHT22;10200;49.232;9.222;2023-01-16T17:43:55;6.70;99.90
20081;DHT22;10200;49.232;9.222;2023-01-16T17:46:39;6.70;99.90
20081;DHT22;10200;49.232;9.222;2023-01-16T17:49:05;6.60;99.90
20081;DHT22;10200;49.232;9.222;2023-01-16T17:51:31;6.60;99.90
20081;DHT22;10200;49.232;9.222;2023-01-16T17:53:57;6.60;99.90
20081;DHT22;10200;49.232;9.222;2023-01-16T17:56:23;6.60;99.90
20081;DHT22;10200;49.232;9.222;2023-01-16T17:58:50;6.50;99.90
20081;DHT22;10200;49.232;9.222;2023-01-16T18:01:24;6.60;99.90
20081;DHT22;10200;49.232;9.222;2023-01-16T18:06:26;6.50;99.90
20081;DHT22;10200;49.232;9.222;2023-01-16T18:08:53;6.40;99.90
20081;DHT22;10200;49.232;9.222;2023-01-16T18:11:21;6.40;99.90
20081;DHT22;10200;49.232;9.222;2023-01-16T18:14:08;6.30;99.90
20081;DHT22;10200;49.232;9.222;2023-01-16T18:16:52;6.30;99.90
20081;DHT22;10200;49.232;9.222;2023-01-16T18:19:37;6.30;99.90
20081;DHT22;10200;49.232;9.222;2023-01-16T18:22:02;6.30;99.90
20081;DHT22;10200;49.232;9.222;2023-01-16T18:24:31;6.30;99.90
20081;DHT22;10200;49.232;9.222;2023-01-16T18:26:58;6.20;99.90
20081;DHT22;10200;49.232;9.222;2023-01-16T18:29:24;6.20;99.90
20081;DHT22;10200;49.232;9.222;2023-01-16T18:31:49;6.10;99.90
20081;DHT22;10200;49.232;9.222;2023-01-16T18:34:33;6.20;99.90
20081;DHT22;10200;49.232;9.222;2023-01-16T18:36:59;6.10;99.90
20081;DHT22;10200;49.232;9.222;2023-01-16T18:39:25;6.10;99.90